Embarrass, Wisconsin
Current Conditions -  °F | °C
As of 7:35 AM on Sunday 21 Dec 2014 (Local Time) from KCLI Reporting Station
Haze Haze  
Wind Chill: 27°   Ceiling: 1000
Heat Index: 32°   Visibility: 5mi
Dew Point: 28°   Wind: 5mph
Humidity: 87%   Direction: 170°S
Pressure: 30.11"   Gusts: NA
Location:  44.67°N, 88.71°W
Report Text: KCLI 211335Z AUTO 17004KT 5SM BR OVC010 00/M02 A3011 RMK AO2
Loading
Personal Weather Stations






























Interactive Weather Map New forecast layout! Learn more

10-Day Weather Forecast

Advertisements
Track Severe Weather on mobile